createdAt,value
2019-02-22T00:00:41.822Z,58.80
2019-02-22T00:03:10.156Z,59.00
2019-02-22T00:05:38.375Z,59.90
2019-02-22T00:08:06.892Z,58.90
2019-02-22T00:10:35.121Z,59.00
2019-02-22T00:13:03.356Z,58.30
2019-02-22T00:15:31.584Z,58.20
2019-02-22T00:18:00.148Z,58.20
2019-02-22T00:20:28.403Z,58.00
2019-02-22T00:22:56.644Z,58.60
2019-02-22T00:25:24.890Z,59.30
2019-02-22T00:27:53.128Z,60.30
2019-02-22T00:30:21.626Z,60.00
2019-02-22T00:32:49.989Z,59.70
2019-02-22T00:35:18.277Z,59.90
2019-02-22T00:37:46.512Z,59.90
2019-02-22T00:40:15.065Z,60.00
2019-02-22T00:42:43.295Z,60.60
2019-02-22T00:45:11.529Z,61.70
2019-02-22T00:47:40.032Z,61.00
2019-02-22T00:50:08.484Z,60.50
2019-02-22T00:52:36.744Z,60.60
2019-02-22T00:55:05.624Z,61.10
2019-02-22T00:57:33.868Z,61.00
2019-02-22T01:00:02.104Z,61.40
2019-02-22T01:02:30.517Z,61.30
2019-02-22T01:04:59.080Z,61.40
2019-02-22T01:07:27.573Z,61.10
2019-02-22T01:09:56.168Z,61.70
2019-02-22T01:12:24.411Z,62.30
2019-02-22T01:14:52.635Z,61.80
2019-02-22T01:17:20.855Z,61.70
2019-02-22T01:19:49.093Z,61.70
2019-02-22T01:22:17.316Z,61.60
2019-02-22T01:24:45.556Z,61.70
2019-02-22T01:27:14.098Z,62.10
2019-02-22T01:29:42.332Z,62.20
2019-02-22T01:32:10.557Z,62.90
2019-02-22T01:34:38.792Z,61.70
2019-02-22T01:37:07.348Z,61.80
2019-02-22T01:39:35.587Z,61.90
2019-02-22T01:42:03.799Z,61.70
2019-02-22T01:44:32.039Z,62.20
2019-02-22T01:47:00.431Z,62.60
2019-02-22T01:49:28.672Z,62.20
2019-02-22T01:51:56.900Z,62.30
2019-02-22T01:54:25.140Z,62.30
2019-02-22T01:56:53.365Z,62.40
2019-02-22T01:59:21.844Z,62.50
2019-02-22T02:01:50.339Z,62.70
2019-02-22T02:04:18.575Z,62.60
2019-02-22T02:06:46.805Z,62.90
2019-02-22T02:09:15.034Z,63.00
2019-02-22T02:11:43.597Z,63.20
2019-02-22T02:14:11.827Z,63.30
2019-02-22T02:16:40.383Z,62.80
2019-02-22T02:19:08.895Z,63.30
2019-02-22T02:21:37.129Z,63.30
2019-02-22T02:24:05.357Z,63.50
2019-02-22T02:26:33.580Z,63.30
2019-02-22T02:29:01.866Z,63.50
2019-02-22T02:31:30.124Z,63.80
2019-02-22T02:33:58.617Z,63.90
2019-02-22T02:36:26.841Z,64.40
2019-02-22T02:38:55.076Z,65.00
2019-02-22T02:41:23.308Z,65.40
2019-02-22T02:43:51.547Z,65.00
2019-02-22T02:46:19.877Z,64.90
2019-02-22T02:48:48.185Z,64.70
2019-02-22T02:51:16.613Z,64.50
2019-02-22T02:53:44.919Z,64.90
2019-02-22T02:56:13.165Z,64.80
2019-02-22T02:58:41.713Z,65.30
2019-02-22T03:01:09.945Z,65.20
2019-02-22T03:03:38.499Z,64.80
2019-02-22T03:06:20.742Z,65.00
2019-02-22T03:08:48.968Z,65.10
2019-02-22T03:11:21.004Z,65.20
2019-02-22T03:13:47.180Z,65.50
2019-02-22T03:16:16.021Z,65.90
2019-02-22T03:18:44.256Z,66.60
2019-02-22T03:21:12.480Z,66.50
2019-02-22T03:23:40.719Z,66.20
2019-02-22T03:26:11.674Z,66.50
2019-02-22T03:28:40.230Z,66.40
2019-02-22T03:31:08.498Z,66.80
2019-02-22T03:33:36.942Z,66.90
2019-02-22T03:36:05.504Z,67.10
2019-02-22T03:38:33.738Z,67.30
2019-02-22T03:41:02.289Z,68.20
2019-02-22T03:43:30.518Z,68.20
2019-02-22T03:45:58.757Z,68.00
2019-02-22T03:48:26.993Z,68.50
2019-02-22T03:50:55.224Z,68.50
2019-02-22T03:53:25.100Z,68.50
2019-02-22T03:55:53.337Z,68.50
2019-02-22T03:58:21.575Z,68.40
2019-02-22T04:00:49.805Z,68.90
2019-02-22T04:03:18.335Z,69.40
2019-02-22T04:05:46.825Z,70.20
2019-02-22T04:08:15.048Z,71.30
2019-02-22T04:10:43.604Z,71.80
2019-02-22T04:13:11.830Z,72.40
2019-02-22T04:15:40.122Z,72.40
2019-02-22T04:18:08.677Z,71.80
2019-02-22T04:20:37.006Z,71.30
2019-02-22T04:23:05.561Z,71.50
2019-02-22T04:25:34.176Z,71.50
2019-02-22T04:28:02.403Z,71.20
2019-02-22T04:30:30.644Z,70.70
2019-02-22T04:32:59.120Z,70.50
2019-02-22T04:35:27.642Z,71.30
2019-02-22T04:37:56.108Z,71.50
2019-02-22T04:40:24.609Z,71.00
2019-02-22T04:42:53.110Z,70.90
2019-02-22T04:45:21.354Z,70.80
2019-02-22T04:47:49.904Z,71.00
2019-02-22T04:50:18.128Z,71.20
2019-02-22T04:52:46.348Z,70.70
2019-02-22T04:55:14.581Z,70.70
2019-02-22T04:57:42.813Z,70.70
2019-02-22T05:00:11.041Z,70.90
2019-02-22T05:02:39.512Z,71.00
2019-02-22T05:05:07.753Z,70.90
2019-02-22T05:07:35.980Z,70.80
2019-02-22T05:10:04.766Z,71.10
2019-02-22T05:12:33.290Z,71.00
2019-02-22T05:15:11.989Z,70.60
2019-02-22T05:17:31.483Z,70.40
2019-02-22T05:19:59.716Z,71.40
2019-02-22T05:22:27.951Z,71.20
2019-02-22T05:24:56.191Z,71.70
2019-02-22T05:27:24.665Z,71.80
2019-02-22T05:29:53.234Z,71.90
2019-02-22T05:32:21.455Z,74.00
2019-02-22T05:34:49.694Z,74.90
2019-02-22T05:37:18.233Z,76.50
2019-02-22T05:39:46.465Z,77.90
2019-02-22T05:42:22.626Z,78.40
2019-02-22T05:44:44.665Z,79.30
2019-02-22T05:47:13.224Z,79.40
2019-02-22T05:49:41.447Z,79.90
2019-02-22T05:52:09.709Z,80.30
2019-02-22T05:54:38.201Z,80.70
2019-02-22T05:57:06.436Z,81.10
2019-02-22T05:59:34.987Z,82.30
2019-02-22T06:02:03.477Z,82.50
2019-02-22T06:04:31.978Z,82.60
2019-02-22T06:07:00.227Z,83.30
2019-02-22T06:09:28.448Z,83.40
2019-02-22T06:11:56.943Z,82.70
2019-02-22T06:14:25.178Z,83.20
2019-02-22T06:16:53.721Z,83.90
2019-02-22T06:19:21.948Z,83.20
2019-02-22T06:21:50.188Z,82.80
2019-02-22T06:24:18.696Z,82.60
2019-02-22T06:26:47.184Z,83.00
2019-02-22T06:29:15.483Z,83.20
2019-02-22T06:31:44.076Z,82.60
2019-02-22T06:34:12.567Z,82.90
2019-02-22T06:36:40.797Z,83.00
2019-02-22T06:39:09.352Z,82.50
2019-02-22T06:41:37.592Z,82.60
2019-02-22T06:44:05.821Z,83.40
2019-02-22T06:46:34.416Z,83.50
2019-02-22T06:49:02.926Z,84.10
2019-02-22T06:51:31.151Z,84.40
2019-02-22T06:53:59.382Z,85.30
2019-02-22T06:56:27.914Z,85.20
2019-02-22T06:58:56.208Z,85.60
2019-02-22T07:01:24.475Z,86.50
2019-02-22T07:03:52.753Z,87.00
2019-02-22T07:06:21.240Z,86.40
2019-02-22T07:08:49.742Z,87.20
2019-02-22T07:11:22.296Z,88.00
2019-02-22T07:13:50.524Z,87.20
2019-02-22T07:16:19.013Z,87.00
2019-02-22T07:18:49.837Z,88.20
2019-02-22T07:21:17.272Z,89.00
2019-02-22T07:23:45.826Z,88.40
2019-02-22T07:26:14.312Z,88.40
2019-02-22T07:28:42.541Z,88.30
2019-02-22T07:31:10.774Z,88.40
2019-02-22T07:33:39.279Z,88.90
2019-02-22T07:36:07.503Z,89.20
2019-02-22T07:38:36.069Z,88.80
2019-02-22T07:41:04.586Z,88.90
2019-02-22T07:43:32.818Z,89.40
2019-02-22T07:46:01.364Z,89.00
2019-02-22T07:48:29.840Z,89.10
2019-02-22T07:50:58.555Z,89.10
2019-02-22T07:53:26.992Z,90.00
2019-02-22T07:55:55.459Z,89.50
2019-02-22T07:58:23.779Z,89.80
2019-02-22T08:00:52.087Z,89.30
2019-02-22T08:03:20.609Z,90.00
2019-02-22T08:05:49.105Z,90.00
2019-02-22T08:08:17.594Z,90.00
2019-02-22T08:10:45.821Z,89.70
2019-02-22T08:13:19.731Z,89.40
2019-02-22T08:15:44.405Z,89.80
2019-02-22T08:18:12.708Z,90.10
2019-02-22T08:20:40.936Z,91.40
2019-02-22T08:23:09.468Z,89.40
2019-02-22T08:25:37.698Z,89.00
2019-02-22T08:28:05.937Z,89.30
2019-02-22T08:30:34.408Z,90.00
2019-02-22T08:33:02.768Z,90.30
2019-02-22T08:35:31.330Z,90.50
2019-02-22T08:37:59.566Z,90.50
2019-02-22T08:40:27.792Z,90.50
2019-02-22T08:42:56.032Z,90.30
2019-02-22T08:45:24.788Z,90.40
2019-02-22T08:47:53.293Z,90.30
2019-02-22T08:50:21.581Z,90.40
2019-02-22T08:52:49.906Z,90.70
2019-02-22T08:55:18.116Z,90.80
2019-02-22T08:57:46.356Z,91.00
2019-02-22T09:00:14.949Z,90.70
2019-02-22T09:02:43.180Z,90.80
2019-02-22T09:05:11.644Z,90.80
2019-02-22T09:07:39.884Z,90.50
2019-02-22T09:10:10.564Z,90.50
2019-02-22T09:12:38.797Z,90.50
2019-02-22T09:15:09.202Z,90.60
2019-02-22T09:17:37.435Z,90.70
2019-02-22T09:20:10.968Z,90.60
2019-02-22T09:22:39.209Z,90.80
2019-02-22T09:25:07.440Z,90.90
2019-02-22T09:27:35.950Z,91.10
2019-02-22T09:30:06.617Z,91.30
2019-02-22T09:32:34.856Z,91.20
2019-02-22T09:35:03.576Z,90.80
2019-02-22T09:37:31.804Z,90.40
2019-02-22T09:40:00.045Z,90.60
2019-02-22T09:42:28.561Z,90.10
2019-02-22T09:44:56.797Z,90.30
2019-02-22T09:47:25.328Z,89.90
2019-02-22T09:49:53.576Z,90.20
2019-02-22T09:52:22.652Z,88.20
2019-02-22T09:54:50.892Z,89.90
2019-02-22T09:57:19.112Z,89.50
2019-02-22T09:59:47.348Z,88.70
2019-02-22T10:02:15.889Z,88.80
2019-02-22T10:04:54.522Z,87.10
2019-02-22T10:07:14.331Z,85.70
2019-02-22T10:09:42.571Z,84.80
2019-02-22T10:12:10.795Z,84.60
2019-02-22T10:14:39.040Z,84.30
2019-02-22T10:17:07.264Z,84.50
2019-02-22T10:19:35.504Z,84.60
2019-02-22T10:22:03.734Z,84.50
2019-02-22T10:24:31.988Z,83.40
2019-02-22T10:27:00.220Z,80.10
2019-02-22T10:29:28.704Z,81.40
2019-02-22T10:31:56.948Z,80.60
2019-02-22T10:34:25.183Z,80.30
2019-02-22T10:36:53.404Z,80.60
2019-02-22T10:39:21.969Z,80.90
2019-02-22T10:41:50.197Z,81.60
2019-02-22T10:44:18.436Z,81.90
2019-02-22T10:46:46.669Z,80.10
2019-02-22T10:49:15.229Z,80.70
2019-02-22T10:51:43.448Z,81.50
2019-02-22T10:54:11.694Z,79.90
2019-02-22T10:56:39.921Z,78.20
2019-02-22T10:59:08.160Z,78.20
2019-02-22T11:01:36.384Z,76.90
2019-02-22T11:04:04.620Z,76.60
2019-02-22T11:06:33.144Z,77.30
2019-02-22T11:09:01.394Z,76.60
2019-02-22T11:11:29.608Z,77.10
2019-02-22T11:13:57.884Z,77.30
2019-02-22T11:16:26.116Z,76.30
2019-02-22T11:18:54.424Z,75.40
2019-02-22T11:21:22.718Z,74.30
2019-02-22T11:23:50.964Z,74.00
2019-02-22T11:26:19.478Z,74.40
2019-02-22T11:28:47.707Z,75.60
2019-02-22T11:31:17.342Z,75.30
2019-02-22T11:33:46.078Z,75.40
2019-02-22T11:36:14.305Z,73.90
2019-02-22T11:38:42.532Z,75.20
2019-02-22T11:41:11.038Z,71.50
2019-02-22T11:43:39.265Z,71.70
2019-02-22T11:46:07.507Z,71.60
2019-02-22T11:48:35.812Z,71.50
2019-02-22T11:51:04.300Z,69.90
2019-02-22T11:53:32.557Z,67.90
2019-02-22T11:56:00.844Z,68.20
2019-02-22T11:58:29.370Z,69.60
2019-02-22T12:00:57.604Z,67.90
2019-02-22T12:03:25.836Z,67.10
2019-02-22T12:05:54.080Z,66.60
2019-02-22T12:08:22.630Z,66.70
2019-02-22T12:10:50.869Z,66.40
2019-02-22T12:13:19.100Z,67.30
2019-02-22T12:15:47.597Z,67.40
2019-02-22T12:18:16.094Z,67.80
2019-02-22T12:20:44.584Z,67.70
2019-02-22T12:23:13.084Z,67.40
2019-02-22T12:25:41.310Z,67.40
2019-02-22T12:28:09.898Z,66.90
2019-02-22T12:30:38.127Z,67.20
2019-02-22T12:33:06.640Z,67.10
2019-02-22T12:35:34.956Z,66.40
2019-02-22T12:38:03.184Z,65.80
2019-02-22T12:40:31.423Z,66.80
2019-02-22T12:42:59.649Z,66.40
2019-02-22T12:45:28.189Z,67.30
2019-02-22T12:47:56.446Z,66.80
2019-02-22T12:50:24.663Z,68.00
2019-02-22T12:52:53.172Z,66.70
2019-02-22T12:55:21.397Z,66.40
2019-02-22T12:57:49.644Z,66.00
2019-02-22T13:00:19.157Z,66.70
2019-02-22T13:02:47.376Z,66.50
2019-02-22T13:05:18.058Z,66.20
2019-02-22T13:07:46.290Z,65.10
2019-02-22T13:10:14.523Z,65.60
2019-02-22T13:12:42.756Z,63.40
2019-02-22T13:15:14.558Z,62.00
2019-02-22T13:17:43.386Z,62.50
2019-02-22T13:20:11.923Z,62.50
2019-02-22T13:22:40.144Z,61.30
2019-02-22T13:25:09.620Z,60.80
2019-02-22T13:27:38.122Z,61.10
2019-02-22T13:30:12.402Z,60.90
2019-02-22T13:32:40.652Z,60.10
2019-02-22T13:35:10.940Z,59.20
2019-02-22T13:37:38.844Z,60.50
2019-02-22T13:40:10.129Z,59.30
2019-02-22T13:42:38.358Z,58.60
2019-02-22T13:45:09.369Z,57.20
2019-02-22T13:47:37.606Z,57.50
2019-02-22T13:50:09.141Z,58.20
2019-02-22T13:52:37.809Z,57.40
2019-02-22T13:55:07.397Z,57.00
2019-02-22T13:57:35.652Z,57.90
2019-02-22T14:00:05.936Z,56.70
2019-02-22T14:02:34.160Z,56.60
2019-02-22T14:05:02.422Z,56.20
2019-02-22T14:07:30.637Z,55.70
2019-02-22T14:09:58.872Z,55.20
2019-02-22T14:12:27.103Z,56.40
2019-02-22T14:14:55.688Z,55.90
2019-02-22T14:17:23.912Z,56.10
2019-02-22T14:19:52.174Z,57.00
2019-02-22T14:22:20.657Z,55.60
2019-02-22T14:24:48.919Z,55.90
2019-02-22T14:27:17.145Z,55.60
2019-02-22T14:29:45.376Z,56.10
2019-02-22T14:32:13.600Z,56.40
2019-02-22T14:34:42.106Z,56.50
2019-02-22T14:37:10.355Z,56.60
2019-02-22T14:39:38.961Z,56.00
2019-02-22T14:42:07.336Z,55.60
2019-02-22T14:44:35.872Z,55.80
2019-02-22T14:47:04.101Z,55.60
2019-02-22T14:49:32.333Z,56.20
2019-02-22T14:52:00.557Z,55.90
2019-02-22T14:54:29.130Z,54.90
2019-02-22T14:56:57.642Z,55.00
2019-02-22T14:59:25.871Z,53.90
2019-02-22T15:01:54.409Z,53.90
2019-02-22T15:04:22.658Z,53.40
2019-02-22T15:06:51.189Z,53.10
2019-02-22T15:09:19.784Z,52.90
2019-02-22T15:11:48.009Z,54.20
2019-02-22T15:14:18.106Z,53.60
2019-02-22T15:16:50.780Z,54.50
2019-02-22T15:19:22.108Z,54.90
2019-02-22T15:21:49.850Z,55.10
2019-02-22T15:24:18.077Z,55.50
2019-02-22T15:26:46.312Z,55.50
2019-02-22T15:29:14.796Z,55.00
2019-02-22T15:31:43.298Z,55.30
2019-02-22T15:34:11.525Z,55.20
2019-02-22T15:36:40.079Z,55.90
2019-02-22T15:39:08.308Z,55.90
2019-02-22T15:41:36.939Z,54.80
2019-02-22T15:44:05.788Z,55.70
2019-02-22T15:46:36.924Z,55.70
2019-02-22T15:49:06.985Z,56.40
2019-02-22T15:51:35.899Z,55.80
2019-02-22T15:54:04.350Z,55.40
2019-02-22T15:56:32.640Z,56.20
2019-02-22T15:59:01.139Z,55.50
2019-02-22T16:01:29.380Z,55.90
2019-02-22T16:04:11.085Z,57.60
2019-02-22T16:06:39.325Z,56.10
2019-02-22T16:09:07.908Z,57.30
2019-02-22T16:11:37.069Z,57.50
2019-02-22T16:14:07.269Z,66.40
2019-02-22T16:16:35.597Z,57.00
2019-02-22T16:19:03.865Z,57.60
2019-02-22T16:21:32.157Z,56.60
2019-02-22T16:24:00.384Z,57.50
2019-02-22T16:26:29.816Z,58.00
2019-02-22T16:28:58.056Z,57.60
2019-02-22T16:31:28.011Z,57.00
2019-02-22T16:33:56.301Z,57.80
2019-02-22T16:36:24.556Z,57.70
2019-02-22T16:38:52.788Z,58.30
2019-02-22T16:41:21.041Z,57.90
2019-02-22T16:43:49.272Z,58.40
2019-02-22T16:46:17.508Z,58.30
2019-02-22T16:48:45.748Z,57.90
2019-02-22T16:51:13.990Z,57.40
2019-02-22T16:53:42.545Z,58.10
2019-02-22T16:56:10.796Z,58.50
2019-02-22T16:58:39.325Z,59.60
2019-02-22T17:01:07.574Z,58.50
2019-02-22T17:03:36.110Z,58.70
2019-02-22T17:06:04.601Z,59.10
2019-02-22T17:08:32.834Z,59.40
2019-02-22T17:11:01.417Z,59.20
2019-02-22T17:13:29.636Z,59.30
2019-02-22T17:15:57.877Z,59.30
2019-02-22T17:18:26.110Z,59.50
2019-02-22T17:20:54.352Z,59.30
2019-02-22T17:23:22.580Z,59.50
2019-02-22T17:25:50.847Z,59.60
2019-02-22T17:28:19.076Z,59.30
2019-02-22T17:30:47.320Z,59.60
2019-02-22T17:33:15.904Z,59.60
2019-02-22T17:35:44.136Z,59.70
2019-02-22T17:38:12.355Z,60.20
2019-02-22T17:40:40.601Z,60.00
2019-02-22T17:43:08.832Z,59.90
2019-02-22T17:45:37.076Z,60.00
2019-02-22T17:48:05.746Z,60.00
2019-02-22T17:50:34.415Z,60.10
2019-02-22T17:53:02.640Z,60.30
2019-02-22T17:55:30.868Z,60.40
2019-02-22T17:57:59.108Z,60.40
2019-02-22T18:00:27.585Z,60.70
2019-02-22T18:02:55.840Z,60.60
2019-02-22T18:05:24.079Z,61.50
2019-02-22T18:07:52.327Z,61.20
2019-02-22T18:10:20.556Z,61.40
2019-02-22T18:12:49.095Z,61.20
2019-02-22T18:15:17.838Z,61.10
2019-02-22T18:17:47.242Z,60.80
2019-02-22T18:20:15.777Z,61.40
2019-02-22T18:22:44.046Z,60.50
2019-02-22T18:25:12.620Z,59.70
2019-02-22T18:27:40.864Z,60.00
2019-02-22T18:30:12.365Z,61.00
2019-02-22T18:32:40.596Z,59.80
2019-02-22T18:35:08.987Z,59.90
2019-02-22T18:37:37.629Z,60.20
2019-02-22T18:40:14.332Z,60.40
2019-02-22T18:42:42.829Z,60.50
2019-02-22T18:45:11.300Z,60.60
2019-02-22T18:47:39.541Z,61.20
2019-02-22T18:50:09.906Z,60.40
2019-02-22T18:52:38.151Z,60.50
2019-02-22T18:55:09.180Z,60.40
2019-02-22T18:57:37.409Z,60.80
2019-02-22T19:00:19.906Z,60.80
2019-02-22T19:02:48.433Z,60.90
2019-02-22T19:05:16.652Z,60.90
2019-02-22T19:07:44.892Z,61.40
2019-02-22T19:10:14.552Z,61.70
2019-02-22T19:12:42.791Z,61.80
2019-02-22T19:15:12.557Z,61.50
2019-02-22T19:17:41.106Z,61.50
2019-02-22T19:20:11.466Z,61.50
2019-02-22T19:22:39.708Z,61.30
2019-02-22T19:25:09.041Z,61.90
2019-02-22T19:27:37.280Z,62.10
2019-02-22T19:30:11.717Z,62.10
2019-02-22T19:32:40.318Z,62.00
2019-02-22T19:35:08.540Z,61.90
2019-02-22T19:37:37.091Z,62.40
2019-02-22T19:40:10.664Z,62.40
2019-02-22T19:42:42.004Z,62.60
2019-02-22T19:45:11.456Z,62.50
2019-02-22T19:47:42.055Z,62.70
2019-02-22T19:50:11.685Z,62.80
2019-02-22T19:52:39.921Z,63.00
2019-02-22T19:55:11.151Z,63.40
2019-02-22T19:57:39.392Z,63.80
2019-02-22T20:00:10.912Z,63.70
2019-02-22T20:02:39.156Z,63.60
2019-02-22T20:05:08.812Z,63.90
2019-02-22T20:07:37.302Z,63.70
2019-02-22T20:10:17.348Z,63.90
2019-02-22T20:12:39.205Z,63.90
2019-02-22T20:15:10.813Z,64.10
2019-02-22T20:17:40.315Z,64.90
2019-02-22T20:20:13.639Z,63.90
2019-02-22T20:22:41.873Z,64.00
2019-02-22T20:25:10.889Z,64.10
2019-02-22T20:27:39.386Z,64.00
2019-02-22T20:30:14.611Z,65.10
2019-02-22T20:32:42.970Z,64.20
2019-02-22T20:35:13.985Z,64.50
2019-02-22T20:37:51.797Z,64.70
2019-02-22T20:40:12.523Z,65.40
2019-02-22T20:42:40.768Z,64.80
2019-02-22T20:45:11.048Z,65.40
2019-02-22T20:47:39.283Z,65.50
2019-02-22T20:50:11.875Z,65.70
2019-02-22T20:52:40.412Z,65.70
2019-02-22T20:55:10.542Z,65.80
2019-02-22T20:57:39.041Z,66.00
2019-02-22T21:00:22.425Z,66.20
2019-02-22T21:02:50.663Z,66.40
2019-02-22T21:05:22.404Z,66.70
2019-02-22T21:07:50.653Z,66.80
2019-02-22T21:10:19.913Z,66.90
2019-02-22T21:12:48.156Z,67.30
2019-02-22T21:15:16.385Z,67.10
2019-02-22T21:17:44.669Z,67.40
2019-02-22T21:20:14.831Z,67.30
2019-02-22T21:22:43.070Z,67.60
2019-02-22T21:25:12.659Z,67.50
2019-02-22T21:27:41.140Z,67.70
2019-02-22T21:30:15.587Z,67.90
2019-02-22T21:32:44.167Z,68.20
2019-02-22T21:35:12.480Z,68.50
2019-02-22T21:37:42.256Z,68.20
2019-02-22T21:40:11.430Z,68.20
2019-02-22T21:42:39.660Z,68.20
2019-02-22T21:45:12.971Z,68.60
2019-02-22T21:47:41.494Z,68.70
2019-02-22T21:50:14.593Z,69.10
2019-02-22T21:52:43.082Z,69.20
2019-02-22T21:55:12.340Z,69.10
2019-02-22T21:57:40.888Z,69.00
2019-02-22T22:00:17.062Z,69.00
2019-02-22T22:02:45.567Z,69.10
2019-02-22T22:05:13.861Z,69.20
2019-02-22T22:07:42.210Z,69.00
2019-02-22T22:10:10.428Z,69.00
2019-02-22T22:12:38.916Z,69.30
2019-02-22T22:15:11.704Z,69.60
2019-02-22T22:17:39.936Z,70.40
2019-02-22T22:20:09.291Z,69.90
2019-02-22T22:22:37.514Z,70.00
2019-02-22T22:25:09.105Z,70.10
2019-02-22T22:27:37.744Z,70.00
2019-02-22T22:30:13.837Z,69.90
2019-02-22T22:32:42.081Z,69.70
2019-02-22T22:35:12.153Z,69.40
2019-02-22T22:37:40.380Z,70.00
2019-02-22T22:40:10.048Z,70.30
2019-02-22T22:42:38.265Z,70.00
2019-02-22T22:45:09.365Z,70.30
2019-02-22T22:47:36.892Z,70.00
2019-02-22T22:50:08.161Z,69.90
2019-02-22T22:52:36.396Z,70.10
2019-02-22T22:55:05.941Z,70.00
2019-02-22T22:57:34.161Z,70.10
2019-02-22T23:00:02.729Z,69.50
2019-02-22T23:02:30.948Z,69.80
2019-02-22T23:04:59.178Z,69.70
2019-02-22T23:07:27.392Z,70.00
2019-02-22T23:09:55.620Z,70.00
2019-02-22T23:12:23.836Z,69.70
2019-02-22T23:14:52.071Z,70.00
2019-02-22T23:17:20.284Z,69.90
2019-02-22T23:19:48.840Z,69.80
2019-02-22T23:22:17.056Z,69.50
2019-02-22T23:24:45.289Z,70.00
2019-02-22T23:27:13.805Z,69.80
2019-02-22T23:29:42.301Z,69.80
2019-02-22T23:32:10.593Z,70.40
2019-02-22T23:34:38.840Z,70.30
2019-02-22T23:37:07.055Z,70.60
2019-02-22T23:39:35.284Z,70.20
2019-02-22T23:42:03.748Z,70.50
2019-02-22T23:44:31.998Z,70.70
2019-02-22T23:47:00.216Z,70.70
2019-02-22T23:49:28.473Z,71.00
2019-02-22T23:51:56.700Z,71.00
2019-02-22T23:54:25.192Z,70.30
2019-02-22T23:56:53.420Z,70.80
2019-02-22T23:59:21.984Z,70.20
